• Join FlightAware (Why Join?)
  • Login
  • US Flag 
05:06AM EDT


 

Airport Tracker/Info


-or-


 

Live Flight TrackerFlight Track Log ✈ TAP80 ✈ 13-Jul-2013 ✈ SBGR / GRU - LPPR / OPO

Flight Track Log - Related Links

Times and Time Zones

All times are in EDT time to prevent confusion due to time zone crossing. See the TAP80 flight status page for this flight to view local times or setup timezone preferences in your user account.

Time Position Orientation Groundspeed Altitude Reporting Facility
EDT Latitude Longitude Course Direction KTS MPH feet Rate Location/Type
05:19PM -23.4290 -46.4780 348° North 3 3  Level FlightAware
05:20PM -23.4300 -46.4790 223° Southwest 2 2 120 Level FlightAware
05:23PM -23.1630 -46.3199 29° Northeast  Level Estimated
05:23PM -23.4300 -46.4780 29° Northeast 4 5  Level FlightAware
05:24PM -23.4310 -46.4780 180° South 4 5 180 Level FlightAware
05:24PM -23.4310 -46.4770 90° East 4 5 180 Level FlightAware
05:25PM -23.4310 -46.4760 90° East 13 15 180 Level FlightAware
05:25PM -23.4300 -46.4740 61° Northeast 17 20 240 Level FlightAware
05:26PM -23.4290 -46.4720 61° Northeast 16 18 240 Level FlightAware
05:26PM -23.4290 -46.4700 90° East 14 16 240 Level FlightAware
05:27PM -23.4280 -46.4680 61° Northeast 11 13 240 Level FlightAware
05:27PM -23.4280 -46.4670 90° East 10 12 240 Level FlightAware
05:28PM -23.4270 -46.4640 70° East 12 14 240 Level FlightAware
05:29PM -23.4260 -46.4600 75° East 15 17 300 Level FlightAware
05:30PM -23.4250 -46.4550 78° East 18 21 360 Level FlightAware
05:32PM -23.2229 -46.3346 29° Northeast  Level Estimated
05:33PM -23.1115 -46.2685 29° Northeast  Level Estimated
05:34PM -23.0002 -46.2025 29° Northeast  Level Estimated
05:34PM -23.4250 -46.4490 29° Northeast 4 5  Level FlightAware
05:35PM -22.8888 -46.1366 29° Northeast  Level Estimated
05:36PM -23.4250 -46.4500 270° West 13 15  Level FlightAware
05:37PM -23.4290 -46.4650 254° West 150 173 2,760 Level FlightAware
05:37PM -23.4360 -46.4930 255° West 183 211 3,100 4,380 Climbing FlightAware
05:38PM -23.4430 -46.5190 254° West 175 201 4,400 1,860 Climbing FlightAware
05:38PM -23.4480 -46.5410 256° West 185 213 4,800 1,140 Climbing FlightAware
05:39PM -23.4580 -46.5630 244° Southwest 184 212 5,400 1,260 Climbing FlightAware
05:39PM -23.4700 -46.5680 201° Southwest 194 223 5,700 1,020 Climbing FlightAware
05:39PM -23.4900 -46.5580 155° Southeast 195 224 6,100 900 Climbing FlightAware
05:40PM -23.4990 -46.5450 127° Southeast 207 238 6,300 660 Climbing FlightAware
05:40PM -23.5080 -46.5130 107° East 238 274 6,600 660 Climbing FlightAware
05:41PM -23.5100 -46.4730 93° East 275 316 7,000 840 Climbing FlightAware
05:41PM -23.5050 -46.4370 81° East 291 335 7,400 960 Climbing FlightAware
05:41PM -23.4890 -46.4070 60° Northeast 284 327 7,800 720 Climbing FlightAware
05:42PM -23.4700 -46.3770 55° Northeast 287 330 8,000 1,080 Climbing FlightAware
05:42PM -23.4480 -46.3400 57° Northeast 289 333 8,800 2,100 Climbing FlightAware
05:43PM -23.4130 -46.2960 49° Northeast 289 333 10,500 1,740 Climbing FlightAware
05:44PM -23.3680 -46.2780 20° North 311 358 11,000 900 Climbing FlightAware
05:44PM -23.3310 -46.2640 19° North 345 397 11,400 1,500 Climbing FlightAware
05:45PM -23.2530 -46.2340 19° North 362 417 12,900 1,860 Climbing FlightAware
05:45PM -23.1950 -46.2110 20° North 363 418 14,100 1,440 Climbing FlightAware
05:46PM -23.1310 -46.1860 20° North 362 417 14,700 660 Climbing FlightAware
05:47PM -23.0650 -46.1610 19° North 373 429 15,000 180 Climbing FlightAware
05:47PM -22.9990 -46.1360 19° North 378 435 15,000 600 Level FlightAware
05:48PM -22.9240 -46.1070 20° North 376 433 15,900 1,500 Climbing FlightAware
05:49PM -22.8500 -46.0780 20° North 390 449 17,300 1,740 Climbing FlightAware
05:50PM -22.7800 -46.0510 20° North 390 449 18,400 1,680 Climbing FlightAware
05:50PM -22.7000 -46.0210 19° North 406 467 19,700 1,680 Climbing FlightAware
05:51PM -22.6290 -45.9940 19° North 413 475 20,800 1,620 Climbing FlightAware
05:52PM -22.5560 -45.9660 20° North 410 472 21,900 1,560 Climbing FlightAware
05:52PM -22.4820 -45.9380 19° North 414 476 22,900 1,380 Climbing FlightAware
05:53PM -22.4000 -45.9060 20° North 428 493 23,900 1,380 Climbing FlightAware
05:54PM -22.3230 -45.8770 19° North 424 488 24,900 1,320 Climbing FlightAware
05:54PM -22.2480 -45.8490 19° North 431 496 25,700 1,020 Climbing FlightAware
05:55PM -22.1630 -45.8040 26° Northeast 445 512 26,400 960 Climbing FlightAware
05:56PM -22.0930 -45.7550 33° Northeast 459 528 27,100 960 Climbing FlightAware
05:57PM -22.0130 -45.7000 33° Northeast 458 527 27,800 1,020 Climbing FlightAware
05:57PM -21.9390 -45.6500 32° Northeast 461 531 28,600 1,080 Climbing FlightAware
05:58PM -21.8740 -45.6050 33° Northeast 463 533 29,200 1,020 Climbing FlightAware
05:59PM -21.8040 -45.5570 32° Northeast 465 535 29,900 660 Climbing FlightAware
06:00PM -21.6710 -45.4670 32° Northeast 474 545 30,600 840 Climbing FlightAware
06:01PM -21.5530 -45.3860 33° Northeast 479 551 31,800 1,080 Climbing FlightAware
06:02PM -21.4580 -45.3210 32° Northeast 474 545 32,700 960 Climbing FlightAware
06:02PM -21.3770 -45.2660 32° Northeast 471 542 33,400 840 Climbing FlightAware
06:03PM -21.3010 -45.2150 32° Northeast 473 544 33,800 540 Climbing FlightAware
06:04PM -21.2140 -45.1560 32° Northeast 473 544 34,200 420 Climbing FlightAware
06:05PM -21.1420 -45.1070 32° Northeast 477 549 34,500 420 Climbing FlightAware
06:05PM -21.0830 -45.0670 32° Northeast 479 551 34,700 360 Climbing FlightAware
06:06PM -21.0000 -45.0110 32° Northeast 483 556 35,000 180 Climbing FlightAware
06:07PM -20.9170 -44.9550 32° Northeast 485 558 35,000  Level FlightAware
06:07PM -20.8530 -44.9120 32° Northeast 485 558 35,000  Level FlightAware
06:08PM -20.7690 -44.8550 32° Northeast 485 558 35,000  Level FlightAware
06:09PM -20.6950 -44.8050 32° Northeast 482 555 35,000  Level FlightAware
06:09PM -20.6250 -44.7590 32° Northeast 482 555 35,000  Level FlightAware
06:10PM -20.5360 -44.6990 32° Northeast 481 554 35,000  Level FlightAware
06:11PM -20.4670 -44.6530 32° Northeast 480 552 35,000  Level FlightAware
06:11PM -20.3620 -44.5830 32° Northeast 480 552 35,000  Level FlightAware
06:12PM -20.2630 -44.5160 32° Northeast 478 550 35,000  Level FlightAware
06:13PM -20.1810 -44.4620 32° Northeast 475 547 35,000  Level FlightAware
06:14PM -20.1090 -44.4140 32° Northeast 474 545 35,000  Level FlightAware
06:14PM -20.0310 -44.3620 32° Northeast 475 547 35,000  Level FlightAware
06:15PM -19.9870 -44.3330 32° Northeast 476 548 35,000  Level FlightAware
06:16PM -19.8440 -44.2370 32° Northeast 478 550 35,000  Level FlightAware
06:17PM -19.7680 -44.1880 31° Northeast 480 552 35,000  Level FlightAware
06:17PM -19.6870 -44.1330 33° Northeast 481 554 35,000  Level FlightAware
06:18PM -19.6100 -44.0830 31° Northeast 480 552 35,000  Level FlightAware
06:19PM -19.5050 -44.0280 26° Northeast 472 543 35,000  Level FlightAware
06:20PM -19.4150 -43.9910 21° North 471 542 35,000  Level FlightAware
06:20PM -19.3360 -43.9550 23° Northeast 470 541 35,000  Level FlightAware
06:21PM -19.2690 -43.9250 23° Northeast 468 539 35,000  Level FlightAware
06:22PM -19.1820 -43.8870 22° Northeast 467 537 35,000  Level FlightAware
06:22PM -19.0900 -43.8460 23° Northeast 467 537 35,000  Level FlightAware
06:23PM -19.0160 -43.8130 23° Northeast 466 536 35,000  Level FlightAware
06:24PM -19.0990 -43.8500 203° Southwest 466 536 35,000  Level FlightAware
06:24PM -18.8440 -43.7370 23° Northeast 462 532 35,000  Level FlightAware
06:25PM -18.7390 -43.6910 23° Northeast 461 531 35,000  Level FlightAware
06:26PM -18.6770 -43.6630 23° Northeast 461 531 35,000  Level FlightAware
06:27PM -18.5970 -43.6270 23° Northeast 461 531 35,000  Level FlightAware
06:27PM -18.5370 -43.6000 23° Northeast 461 531 35,000  Level FlightAware
06:28PM -18.4560 -43.5640 23° Northeast 461 531 35,000  Level FlightAware
06:29PM -18.3960 -43.5380 22° Northeast 461 531 35,000  Level FlightAware
06:29PM -18.2560 -43.4790 22° Northeast 460 529 35,000  Level FlightAware
06:30PM -18.1690 -43.4420 22° Northeast 460 529 35,000  Level FlightAware
06:31PM -18.1090 -43.4160 22° Northeast 460 529 35,000  Level FlightAware
06:32PM -18.0280 -43.3820 22° Northeast 460 529 35,000  Level FlightAware
06:32PM -17.9660 -43.3550 23° Northeast 460 529 35,000  Level FlightAware
06:33PM -17.9060 -43.3300 22° Northeast 460 529 35,000  Level FlightAware
06:34PM -17.8450 -43.3040 22° Northeast 460 529 35,000  Level FlightAware
06:34PM -17.7650 -43.2700 22° Northeast 460 529 35,000  Level FlightAware
06:35PM -17.7040 -43.2440 22° Northeast 460 529 35,000  Level FlightAware
06:36PM -17.6440 -43.2190 22° Northeast 460 529 35,000  Level FlightAware
06:36PM -17.5630 -43.1850 22° Northeast 460 529 35,000  Level FlightAware
06:37PM -17.5030 -43.1590 22° Northeast 460 529 35,000  Level FlightAware
06:38PM -17.4230 -43.1250 22° Northeast 460 529 35,000  Level FlightAware
06:38PM -17.3620 -43.0990 22° Northeast 460 529 35,000  Level FlightAware
06:39PM -17.2820 -43.0650 22° Northeast 460 529 35,000  Level FlightAware
06:42PM -17.0144 -42.9190 28° Northeast  Level Estimated
06:43PM -16.9021 -42.8579 28° Northeast  Level Estimated
06:44PM -16.7898 -42.7969 27° Northeast  Level Estimated
06:45PM -16.6774 -42.7359 27° Northeast  Level Estimated
06:46PM -16.5651 -42.6750 27° Northeast  Level Estimated
06:47PM -16.4527 -42.6142 27° Northeast  Level Estimated
06:48PM -16.3403 -42.5534 27° Northeast  Level Estimated
06:49PM -16.2279 -42.4927 27° Northeast  Level Estimated
06:50PM -16.1155 -42.4321 27° Northeast  Level Estimated
06:51PM -16.0030 -42.3716 27° Northeast  Level Estimated
06:52PM -15.8905 -42.3111 27° Northeast  Level Estimated
06:53PM -15.7781 -42.2507 27° Northeast  Level Estimated
06:54PM -15.6656 -42.1903 27° Northeast  Level Estimated
06:55PM -15.5531 -42.1300 27° Northeast  Level Estimated
06:56PM -15.4405 -42.0698 27° Northeast  Level Estimated
06:57PM -15.3280 -42.0097 27° Northeast  Level Estimated
06:58PM -15.2154 -41.9496 27° Northeast  Level Estimated
06:59PM -15.1028 -41.8895 27° Northeast  Level Estimated
07:00PM -14.9902 -41.8296 27° Northeast  Level Estimated
07:01PM -14.8776 -41.7697 27° Northeast  Level Estimated
07:02PM -14.7650 -41.7099 27° Northeast  Level Estimated
07:03PM -14.6524 -41.6501 27° Northeast  Level Estimated
07:04PM -14.5397 -41.5904 27° Northeast  Level Estimated
07:05PM -14.4270 -41.5307 27° Northeast  Level Estimated
07:06PM -14.3144 -41.4711 27° Northeast  Level Estimated
07:07PM -14.2016 -41.4116 27° Northeast  Level Estimated
07:08PM -14.0889 -41.3521 27° Northeast  Level Estimated
07:09PM -13.9762 -41.2927 27° Northeast  Level Estimated
07:10PM -13.8635 -41.2334 27° Northeast  Level Estimated
07:11PM -13.7507 -41.1741 27° Northeast  Level Estimated
07:12PM -13.6379 -41.1148 27° Northeast  Level Estimated
07:13PM -13.5251 -41.0557 27° Northeast  Level Estimated
07:14PM -13.4123 -40.9965 27° Northeast  Level Estimated
07:15PM -13.2995 -40.9375 27° Northeast  Level Estimated
07:16PM -13.1867 -40.8784 27° Northeast  Level Estimated
07:16PM -12.9560 -40.9650 27° Northeast 453 521 37,000  Level FlightAware
07:16PM -12.8580 -40.9180 25° Northeast 454 522 37,000  Level FlightAware
07:17PM -13.0739 -40.8195 27° Northeast  Level Estimated
07:17PM -12.8000 -40.8900 25° Northeast 454 522 37,000  Level FlightAware
07:18PM -12.6930 -40.8370 26° Northeast 455 524 37,000  Level FlightAware
07:19PM -12.6070 -40.7960 25° Northeast 455 524 37,000  Level FlightAware
07:19PM -12.5280 -40.7580 25° Northeast 455 524 37,000  Level FlightAware
07:20PM -12.4690 -40.7300 25° Northeast 455 524 37,000  Level FlightAware
07:21PM -12.3910 -40.6930 25° Northeast 455 524 37,000  Level FlightAware
07:21PM -12.3330 -40.6650 25° Northeast 455 524 37,000  Level FlightAware
07:22PM -12.2750 -40.6370 25° Northeast 455 524 37,000  Level FlightAware
07:23PM -12.1020 -40.5290 31° Northeast 458 527 37,000  Level FlightAware
07:24PM -12.0450 -40.4970 29° Northeast 458 527 37,000  Level FlightAware
07:24PM -11.9470 -40.4570 22° Northeast 457 526 37,000  Level FlightAware
07:25PM -11.8840 -40.4260 26° Northeast 457 526 37,000  Level FlightAware
07:26PM -11.7920 -40.3820 25° Northeast 458 527 37,000  Level FlightAware
07:27PM -11.6890 -40.3320 25° Northeast 456 525 37,000  Level FlightAware
07:27PM -11.6240 -40.3010 25° Northeast 456 525 37,000  Level FlightAware
07:28PM -11.5220 -40.2520 25° Northeast 454 522 37,000  Level FlightAware
07:29PM -11.4500 -40.2170 25° Northeast 454 522 37,000  Level FlightAware
07:29PM -11.3740 -40.1800 26° Northeast 454 522 37,000  Level FlightAware
07:30PM -11.2970 -40.1440 25° Northeast 453 521 37,000  Level FlightAware
07:31PM -11.2280 -40.1120 24° Northeast 454 522 37,000  Level FlightAware
07:31PM -11.1470 -40.0740 25° Northeast 457 526 37,000  Level FlightAware
07:32PM -11.0670 -40.0370 24° Northeast 457 526 37,000  Level FlightAware
07:33PM -10.9820 -39.9970 25° Northeast 455 524 37,000  Level FlightAware
07:33PM -10.9070 -39.9620 25° Northeast 455 524 37,000  Level FlightAware
07:34PM -10.8230 -39.9230 25° Northeast 454 522 37,000  Level FlightAware
07:35PM -10.7460 -39.8870 25° Northeast 450 518 37,000  Level FlightAware
07:36PM -10.6580 -39.8460 25° Northeast 449 517 37,000  Level FlightAware
07:36PM -10.5820 -39.8110 24° Northeast 449 517 37,000  Level FlightAware
07:37PM -10.5020 -39.7740 24° Northeast 447 514 37,000  Level FlightAware
07:38PM -10.4230 -39.7370 25° Northeast 449 517 37,000  Level FlightAware
07:38PM -10.3430 -39.7000 24° Northeast 450 518 37,000  Level FlightAware
07:39PM -10.2640 -39.6630 25° Northeast 451 519 37,000  Level FlightAware
07:40PM -10.1970 -39.6320 24° Northeast 451 519 37,000  Level FlightAware
07:40PM -10.1150 -39.5940 25° Northeast 451 519 37,000  Level FlightAware
07:41PM -10.0400 -39.5590 25° Northeast 451 519 37,000  Level FlightAware
07:42PM -9.9550 -39.5200 24° Northeast 450 518 37,000  Level FlightAware
07:42PM -9.8790 -39.4840 25° Northeast 448 516 37,000  Level FlightAware
07:43PM -9.7960 -39.4460 24° Northeast 446 513 37,000  Level FlightAware
07:44PM -9.7210 -39.4110 25° Northeast 445 512 37,000  Level FlightAware
07:45PM -9.6380 -39.3730 24° Northeast 447 514 37,000  Level FlightAware
07:45PM -9.5580 -39.3360 25° Northeast 450 518 37,000  Level FlightAware
07:46PM -9.4850 -39.3020 25° Northeast 447 514 37,000  Level FlightAware
07:47PM -9.4000 -39.2630 24° Northeast 446 513 37,000  Level FlightAware
07:47PM -9.3180 -39.2250 25° Northeast 447 514 37,000  Level FlightAware
07:48PM -9.2420 -39.1900 24° Northeast 448 516 37,000  Level FlightAware
07:49PM -9.1610 -39.1530 24° Northeast 451 519 37,000  Level FlightAware
07:49PM -9.0810 -39.1160 25° Northeast 451 519 37,000  Level FlightAware
07:50PM -8.9990 -39.0780 25° Northeast 450 518 37,000  Level FlightAware
07:51PM -8.9220 -39.0430 24° Northeast 451 519 37,000  Level FlightAware
07:52PM -8.8400 -39.0060 24° Northeast 451 519 37,000  Level FlightAware
07:52PM -8.7680 -38.9720 25° Northeast 450 518 37,000  Level FlightAware
07:53PM -8.6880 -38.9320 26° Northeast 454 522 37,000  Level FlightAware
07:54PM -8.6140 -38.8860 32° Northeast 453 521 37,000  Level FlightAware
07:54PM -8.5390 -38.8380 32° Northeast 449 517 37,000  Level FlightAware
07:55PM -8.4620 -38.7830 35° Northeast 453 521 37,000  Level FlightAware
07:56PM -8.4050 -38.7230 46° Northeast 454 522 37,000  Level FlightAware
07:56PM -8.3430 -38.6570 46° Northeast 458 527 37,000  Level FlightAware
07:57PM -8.2720 -38.5570 54° Northeast 460 529 37,000  Level FlightAware
07:58PM -8.2100 -38.4660 55° Northeast 459 528 37,000  Level FlightAware
07:59PM -8.1540 -38.4140 43° Northeast 443 510 37,000  Level FlightAware
08:00PM -8.0490 -38.3710 22° Northeast 439 505 37,000  Level FlightAware
08:00PM -7.9940 -38.3490 22° Northeast 439 505 37,000  Level FlightAware
08:01PM -7.9340 -38.3260 21° North 439 505 37,000  Level FlightAware
08:02PM -7.8570 -38.2960 21° North 439 505 37,000  Level FlightAware
08:03PM -7.7990 -38.2740 21° North 439 505 37,000  Level FlightAware
08:03PM -7.7220 -38.2440 21° North 439 505 37,000  Level FlightAware
08:04PM -7.5690 -38.2070 13° North 446 513 37,000  Level FlightAware
08:05PM -7.4820 -38.1760 19° North 449 517 37,000  Level FlightAware
08:05PM -7.4170 -38.1530 19° North 449 517 37,000  Level FlightAware
08:06PM -7.3150 -38.1180 19° North 449 517 37,000  Level FlightAware
08:07PM -7.2550 -38.0970 19° North 449 517 37,000  Level FlightAware
08:08PM -7.1280 -38.0500 20° North 456 525 37,000  Level FlightAware
08:08PM -7.0650 -38.0280 19° North 456 525 37,000  Level FlightAware
08:09PM -6.9840 -38.0000 19° North 456 525 37,000  Level FlightAware
08:10PM -6.9230 -37.9790 19° North 456 525 37,000  Level FlightAware
08:10PM -6.8070 -37.9350 21° North 452 520 37,000  Level FlightAware
08:11PM -6.7380 -37.9110 19° North 452 520 37,000  Level FlightAware
08:12PM -6.6780 -37.8900 19° North 452 520 37,000  Level FlightAware
08:12PM -6.6170 -37.8690 19° North 452 520 37,000  Level FlightAware
08:13PM -6.5370 -37.8410 19° North 452 520 37,000  Level FlightAware
08:14PM -6.4740 -37.8190 19° North 452 520 37,000  Level FlightAware
08:14PM -6.3920 -37.7910 19° North 452 520 37,000  Level FlightAware
08:15PM -6.3320 -37.7700 19° North 452 520 37,000  Level FlightAware
08:16PM -6.2540 -37.7430 19° North 452 520 37,000  Level FlightAware
08:16PM -6.0890 -37.6800 21° North 37,000  Level FlightAware
08:19PM -5.8552 -37.5619 27° Northeast  Level Estimated
08:20PM -5.7420 -37.5048 27° Northeast  Level Estimated
08:21PM -5.6289 -37.4477 27° Northeast  Level Estimated
08:22PM -5.5157 -37.3906 27° Northeast  Level Estimated
08:23PM -5.4026 -37.3336 27° Northeast  Level Estimated
08:24PM -5.2894 -37.2766 27° Northeast  Level Estimated
08:25PM -5.1762 -37.2196 27° Northeast  Level Estimated
08:26PM -5.0630 -37.1626 27° Northeast  Level Estimated
08:27PM -4.9499 -37.1056 27° Northeast  Level Estimated
08:28PM -4.8367 -37.0487 27° Northeast  Level Estimated
08:29PM -4.7235 -36.9918 27° Northeast  Level Estimated
08:29PM -4.5950 -37.0310 27° Northeast 448 516 37,000  Level FlightAware
08:30PM -4.6103 -36.9349 27° Northeast  Level Estimated
08:30PM -4.5030 -36.9800 29° Northeast 446 513 37,000  Level FlightAware
08:31PM -4.4480 -36.9500 29° Northeast 446 513 37,000  Level FlightAware
08:32PM -4.3740 -36.9090 29° Northeast 446 513 37,000  Level FlightAware
08:32PM -4.3190 -36.8780 29° Northeast 446 513 37,000  Level FlightAware
08:33PM -4.2620 -36.8460 29° Northeast 446 513 37,000  Level FlightAware
08:33PM -4.2070 -36.8160 29° Northeast 446 513 37,000  Level FlightAware
08:34PM -4.1340 -36.7750 29° Northeast 446 513 37,000  Level FlightAware
08:35PM -4.0770 -36.7430 29° Northeast 446 513 37,000  Level FlightAware
08:36PM -4.0030 -36.7020 29° Northeast 446 513 37,000  Level FlightAware
08:36PM -3.8210 -36.6040 28° Northeast 444 511 37,000  Level FlightAware
08:37PM -3.7240 -36.5500 29° Northeast 443 510 37,000  Level FlightAware
08:38PM -3.6690 -36.5190 29° Northeast 443 510 37,000  Level FlightAware
08:39PM -3.5620 -36.4610 28° Northeast 441 507 37,000  Level FlightAware
08:39PM -3.4880 -36.4200 29° Northeast 440 506 37,000  Level FlightAware
08:40PM -3.4310 -36.3880 29° Northeast 440 506 37,000  Level FlightAware
08:41PM -3.3580 -36.3480 29° Northeast 440 506 37,000  Level FlightAware
08:41PM -3.3040 -36.3180 29° Northeast 440 506 37,000  Level FlightAware
08:42PM -3.2310 -36.2770 29° Northeast 440 506 37,000  Level FlightAware
08:43PM -3.1760 -36.2470 29° Northeast 440 506 37,000  Level FlightAware
08:44PM -3.1040 -36.2070 29° Northeast 440 506 37,000  Level FlightAware
08:44PM -3.0490 -36.1770 29° Northeast 440 506 37,000  Level FlightAware
08:45PM -2.9750 -36.1350 30° Northeast 440 506 37,000  Level FlightAware
08:46PM -2.9210 -36.1050 29° Northeast 440 506 37,000  Level FlightAware
08:46PM -2.8480 -36.0650 29° Northeast 440 506 37,000  Level FlightAware
08:47PM -2.7940 -36.0350 29° Northeast 440 506 37,000  Level FlightAware
08:48PM -2.7210 -35.9940 29° Northeast 440 506 37,000  Level FlightAware
08:48PM -2.6660 -35.9640 29° Northeast 440 506 37,000  Level FlightAware
08:49PM -2.6100 -35.9330 29° Northeast 440 506 37,000  Level FlightAware
08:52PM -2.3325 -35.7943 27° Northeast  Level Estimated
08:53PM -2.2192 -35.7376 27° Northeast  Level Estimated
08:54PM -2.1060 -35.6810 27° Northeast  Level Estimated
08:55PM -1.9927 -35.6244 27° Northeast  Level Estimated
08:56PM -1.8794 -35.5678 27° Northeast  Level Estimated
08:57PM -1.7661 -35.5112 27° Northeast  Level Estimated
08:58PM -1.6529 -35.4547 27° Northeast  Level Estimated
08:59PM -1.5396 -35.3981 27° Northeast  Level Estimated
09:00PM -1.4263 -35.3415 27° Northeast  Level Estimated
09:01PM -1.3130 -35.2850 27° Northeast  Level Estimated
09:02PM -1.1997 -35.2284 27° Northeast  Level Estimated
09:03PM -1.0865 -35.1718 27° Northeast  Level Estimated
09:04PM -0.9732 -35.1153 27° Northeast  Level Estimated
09:05PM -0.8599 -35.0588 27° Northeast  Level Estimated
09:06PM -0.7466 -35.0022 27° Northeast  Level Estimated
09:07PM -0.6333 -34.9457 27° Northeast  Level Estimated
09:08PM -0.5200 -34.8891 27° Northeast  Level Estimated
09:09PM -0.4067 -34.8326 27° Northeast  Level Estimated
09:10PM -0.2934 -34.7761 27° Northeast  Level Estimated
09:11PM -0.1801 -34.7196 27° Northeast  Level Estimated
09:12PM -0.0668 -34.6630 27° Northeast  Level Estimated
09:13PM 0.0464 -34.6065 27° Northeast  Level Estimated
09:14PM 0.1597 -34.5500 27° Northeast  Level Estimated
09:15PM 0.2730 -34.4934 27° Northeast  Level Estimated
09:16PM 0.3863 -34.4369 27° Northeast  Level Estimated
09:17PM 0.4996 -34.3804 27° Northeast  Level Estimated
09:18PM 0.6129 -34.3238 27° Northeast  Level Estimated
09:19PM 0.7262 -34.2673 27° Northeast  Level Estimated
09:20PM 0.8395 -34.2108 27° Northeast  Level Estimated
09:21PM 0.9528 -34.1542 27° Northeast  Level Estimated
09:22PM 1.0661 -34.0977 27° Northeast  Level Estimated
09:23PM 1.1793 -34.0411 27° Northeast  Level Estimated
09:24PM 1.2926 -33.9846 27° Northeast  Level Estimated
09:25PM 1.4059 -33.9280 27° Northeast  Level Estimated
09:26PM 1.5192 -33.8714 27° Northeast  Level Estimated
09:27PM 1.6324 -33.8149 27° Northeast  Level Estimated
09:28PM 1.7457 -33.7583 27° Northeast  Level Estimated
09:29PM 1.8590 -33.7017 27° Northeast  Level Estimated
09:30PM 1.9723 -33.6451 27° Northeast  Level Estimated
09:31PM 2.0856 -33.5885 27° Northeast  Level Estimated
09:32PM 2.1988 -33.5319 27° Northeast  Level Estimated
09:33PM 2.3121 -33.4753 27° Northeast  Level Estimated
09:34PM 2.4254 -33.4187 27° Northeast  Level Estimated
09:35PM 2.5386 -33.3620 27° Northeast  Level Estimated
09:36PM 2.6519 -33.3054 27° Northeast  Level Estimated
09:37PM 2.7651 -33.2487 27° Northeast  Level Estimated
09:38PM 2.8784 -33.1920 27° Northeast  Level Estimated
09:39PM 2.9917 -33.1353 27° Northeast  Level Estimated
09:40PM 3.1049 -33.0787 27° Northeast  Level Estimated
09:41PM 3.2181 -33.0220 27° Northeast  Level Estimated
09:42PM 3.3314 -32.9652 27° Northeast  Level Estimated
09:43PM 3.4446 -32.9085 27° Northeast  Level Estimated
09:44PM 3.5579 -32.8518 27° Northeast  Level Estimated
09:45PM 3.6711 -32.7950 27° Northeast  Level Estimated
09:46PM 3.7843 -32.7383 27° Northeast  Level Estimated
09:47PM 3.8976 -32.6815 27° Northeast  Level Estimated
09:48PM 4.0108 -32.6247 27° Northeast  Level Estimated
09:49PM 4.1240 -32.5679 27° Northeast  Level Estimated
09:50PM 4.2372 -32.5110 27° Northeast  Level Estimated
09:51PM 4.3504 -32.4542 27° Northeast  Level Estimated
09:52PM 4.4636 -32.3973 27° Northeast  Level Estimated
09:53PM 4.5768 -32.3405 27° Northeast  Level Estimated
09:54PM 4.6900 -32.2836 27° Northeast  Level Estimated
09:55PM 4.8032 -32.2266 27° Northeast  Level Estimated
09:56PM 4.9164 -32.1697 27° Northeast  Level Estimated
09:57PM 5.0296 -32.1127 27° Northeast  Level Estimated
09:58PM 5.1428 -32.0558 27° Northeast  Level Estimated
09:59PM 5.2559 -31.9988 27° Northeast  Level Estimated
10:00PM 5.3691 -31.9417 27° Northeast  Level Estimated
10:01PM 5.4823 -31.8847 27° Northeast  Level Estimated
10:02PM 5.5954 -31.8276 27° Northeast  Level Estimated
10:03PM 5.7086 -31.7705 27° Northeast  Level Estimated
10:04PM 5.8217 -31.7134 27° Northeast  Level Estimated
10:05PM 5.9349 -31.6563 27° Northeast  Level Estimated
10:06PM 6.0480 -31.5992 27° Northeast  Level Estimated
10:07PM 6.1611 -31.5420 27° Northeast  Level Estimated
10:08PM 6.2743 -31.4848 27° Northeast  Level Estimated
10:09PM 6.3874 -31.4276 27° Northeast  Level Estimated
10:10PM 6.5005 -31.3703 27° Northeast  Level Estimated
10:11PM 6.6136 -31.3130 27° Northeast  Level Estimated
10:12PM 6.7267 -31.2557 27° Northeast  Level Estimated
10:13PM 6.8398 -31.1984 27° Northeast  Level Estimated
10:14PM 6.9528 -31.1410 27° Northeast  Level Estimated
10:15PM 7.0659 -31.0837 27° Northeast  Level Estimated
10:16PM 7.1790 -31.0263 27° Northeast  Level Estimated
10:17PM 7.2921 -30.9688 27° Northeast  Level Estimated
10:18PM 7.4051 -30.9113 27° Northeast  Level Estimated
10:19PM 7.5182 -30.8538 27° Northeast  Level Estimated
10:20PM 7.6312 -30.7963 27° Northeast  Level Estimated
10:21PM 7.7442 -30.7388 27° Northeast  Level Estimated
10:22PM 7.8573 -30.6812 27° Northeast  Level Estimated
10:23PM 7.9703 -30.6235 27° Northeast  Level Estimated
10:24PM 8.0833 -30.5659 27° Northeast  Level Estimated
10:25PM 8.1963 -30.5082 27° Northeast  Level Estimated
10:26PM 8.3093 -30.4505 27° Northeast  Level Estimated
10:27PM 8.4223 -30.3927 27° Northeast  Level Estimated
10:28PM 8.5352 -30.3349 27° Northeast  Level Estimated
10:29PM 8.6482 -30.2771 27° Northeast  Level Estimated
10:30PM 8.7612 -30.2193 27° Northeast  Level Estimated
10:31PM 8.8741 -30.1614 27° Northeast  Level Estimated
10:32PM 8.9871 -30.1035 27° Northeast  Level Estimated
10:33PM 9.1000 -30.0455 27° Northeast  Level Estimated
10:34PM 9.2129 -29.9875 27° Northeast  Level Estimated
10:35PM 9.3258 -29.9295 27° Northeast  Level Estimated
10:36PM 9.4387 -29.8714 27° Northeast  Level Estimated
10:37PM 9.5516 -29.8133 27° Northeast  Level Estimated
10:38PM 9.6645 -29.7551 27° Northeast  Level Estimated
10:39PM 9.7774 -29.6970 27° Northeast  Level Estimated
10:40PM 9.8903 -29.6387 27° Northeast  Level Estimated
10:41PM 10.0031 -29.5805 27° Northeast  Level Estimated
10:42PM 10.1160 -29.5221 27° Northeast  Level Estimated
10:43PM 10.2288 -29.4638 27° Northeast  Level Estimated
10:44PM 10.3416 -29.4054 27° Northeast  Level Estimated
10:45PM 10.4544 -29.3470 27° Northeast  Level Estimated
10:46PM 10.5673 -29.2885 27° Northeast  Level Estimated
10:47PM 10.6800 -29.2300 27° Northeast  Level Estimated
10:48PM 10.7928 -29.1714 27° Northeast  Level Estimated
10:49PM 10.9056 -29.1128 27° Northeast  Level Estimated
10:50PM 11.0183 -29.0542 27° Northeast  Level Estimated
10:51PM 11.1311 -28.9955 27° Northeast  Level Estimated
10:52PM 11.2438 -28.9367 27° Northeast  Level Estimated
10:53PM 11.3566 -28.8779 27° Northeast  Level Estimated
10:54PM 11.4693 -28.8191 27° Northeast  Level Estimated
10:55PM 11.5820 -28.7602 27° Northeast  Level Estimated
10:56PM 11.6947 -28.7013 27° Northeast  Level Estimated
10:57PM 11.8074 -28.6423 27° Northeast  Level Estimated
10:58PM 11.9200 -28.5833 27° Northeast  Level Estimated
10:59PM 12.0327 -28.5242 27° Northeast  Level Estimated
11:00PM 12.1453 -28.4651 27° Northeast  Level Estimated
11:01PM 12.2579 -28.4059 27° Northeast  Level Estimated
11:02PM 12.3706 -28.3467 27° Northeast  Level Estimated
11:03PM 12.4832 -28.2875 27° Northeast  Level Estimated
11:04PM 12.5957 -28.2281 27° Northeast  Level Estimated
11:05PM 12.7083 -28.1687 27° Northeast  Level Estimated
11:06PM 12.8209 -28.1093 27° Northeast  Level Estimated
11:07PM 12.9334 -28.0498 27° Northeast  Level Estimated
11:08PM 13.0460 -27.9903 27° Northeast  Level Estimated
11:09PM 13.1585 -27.9307 27° Northeast  Level Estimated
11:10PM 13.2710 -27.8710 27° Northeast  Level Estimated
11:11PM 13.3835 -27.8113 27° Northeast  Level Estimated
11:12PM 13.4960 -27.7516 27° Northeast  Level Estimated
11:13PM 13.6085 -27.6918 27° Northeast  Level Estimated
11:14PM 13.7209 -27.6319 27° Northeast  Level Estimated
11:15PM 13.8334 -27.5720 27° Northeast  Level Estimated
11:16PM 13.9458 -27.5120 27° Northeast  Level Estimated
11:17PM 14.0582 -27.4520 27° Northeast  Level Estimated
11:18PM 14.1706 -27.3918 27° Northeast  Level Estimated
11:19PM 14.2830 -27.3317 27° Northeast  Level Estimated
11:20PM 14.3953 -27.2715 27° Northeast  Level Estimated
11:21PM 14.5077 -27.2112 27° Northeast  Level Estimated
11:22PM 14.6200 -27.1509 27° Northeast  Level Estimated
11:23PM 14.7323 -27.0904 27° Northeast  Level Estimated
11:24PM 14.8446 -27.0300 27° Northeast  Level Estimated
11:25PM 14.9569 -26.9694 28° Northeast  Level Estimated
11:26PM 15.0692 -26.9088 28° Northeast  Level Estimated
11:27PM 15.1814 -26.8482 28° Northeast  Level Estimated
11:28PM 15.2937 -26.7875 28° Northeast  Level Estimated
11:29PM 15.4059 -26.7267 28° Northeast  Level Estimated
11:30PM 15.5181 -26.6658 28° Northeast  Level Estimated
11:31PM 15.6303 -26.6049 28° Northeast  Level Estimated
11:32PM 15.7425 -26.5439 28° Northeast  Level Estimated
11:33PM 15.8546 -26.4829 28° Northeast  Level Estimated
11:33PM 15.3390 -25.7440 28° Northeast 458 527 39,000  Level FlightAware
11:33PM 15.4070 -25.7030 30° Northeast 460 529 39,000  Level FlightAware
11:34PM 15.4860 -25.6550 30° Northeast 460 529 39,000  Level FlightAware
11:35PM 15.5610 -25.6100 30° Northeast 459 528 39,000  Level FlightAware
11:35PM 15.6370 -25.5640 30° Northeast 458 527 39,000  Level FlightAware
11:36PM 15.7180 -25.5140 31° Northeast 458 527 39,000  Level FlightAware
11:37PM 15.7910 -25.4700 30° Northeast 457 526 39,000  Level FlightAware
11:37PM 15.8600 -25.4280 30° Northeast 456 525 39,000  Level FlightAware
11:38PM 15.9480 -25.3740 31° Northeast 457 526 39,000  Level FlightAware
11:39PM 16.0150 -25.3330 30° Northeast 457 526 39,000  Level FlightAware
11:39PM 16.0870 -25.2890 30° Northeast 457 526 39,000  Level FlightAware
11:40PM 16.1680 -25.2400 30° Northeast 457 526 39,000  Level FlightAware
11:41PM 16.2330 -25.2000 31° Northeast 457 526 39,000  Level FlightAware
11:41PM 16.3070 -25.1550 30° Northeast 458 527 39,000  Level FlightAware
11:42PM 16.3780 -25.1110 31° Northeast 458 527 39,000  Level FlightAware
11:43PM 16.4540 -25.0650 30° Northeast 459 528 39,000  Level FlightAware
11:43PM 16.5330 -25.0160 31° Northeast 459 528 39,000  Level FlightAware
11:44PM 16.6150 -24.9660 30° Northeast 462 532 39,000  Level FlightAware
11:45PM 16.6880 -24.9210 31° Northeast 462 532 39,000  Level FlightAware
11:46PM 16.7700 -24.8700 31° Northeast 464 534 39,000  Level FlightAware
11:46PM 16.8290 -24.8340 30° Northeast 464 534 39,000  Level FlightAware
11:47PM 16.9030 -24.7880 31° Northeast 464 534 39,000  Level FlightAware
11:47PM 16.9880 -24.7360 30° Northeast 464 534 39,000  Level FlightAware
11:48PM 17.0550 -24.6950 30° Northeast 464 534 39,000  Level FlightAware
11:49PM 17.1300 -24.6480 31° Northeast 463 533 39,000  Level FlightAware
11:49PM 17.2060 -24.6010 31° Northeast 463 533 39,000  Level FlightAware
11:50PM 17.2840 -24.5530 30° Northeast 464 534 39,000  Level FlightAware
11:51PM 17.3660 -24.5020 31° Northeast 465 535 39,000  Level FlightAware
11:52PM 17.4390 -24.4570 30° Northeast 464 534 39,000  Level FlightAware
11:52PM 17.5220 -24.4050 31° Northeast 465 535 39,000  Level FlightAware
11:53PM 17.5770 -24.3710 31° Northeast 467 537 39,000  Level FlightAware
11:54PM 17.6670 -24.3140 31° Northeast 468 539 39,000  Level FlightAware
11:54PM 17.7420 -24.2680 30° Northeast 467 537 39,000  Level FlightAware
11:55PM 17.8080 -24.2270 31° Northeast 467 537 39,000  Level FlightAware
11:56PM 17.8830 -24.1800 31° Northeast 465 535 39,000  Level FlightAware
11:56PM 17.9650 -24.1290 31° Northeast 465 535 39,000  Level FlightAware
11:57PM 18.0380 -24.0830 31° Northeast 463 533 39,000  Level FlightAware
11:58PM 18.1200 -24.0320 31° Northeast 465 535 39,000  Level FlightAware
11:58PM 18.1900 -23.9880 31° Northeast 465 535 39,000  Level FlightAware
11:59PM 18.2760 -23.9340 31° Northeast 465 535 39,000  Level FlightAware
12:00AM 18.3420 -23.8930 31° Northeast 465 535 39,000  Level FlightAware
12:00AM 18.4160 -23.8460 31° Northeast 465 535 39,000  Level FlightAware
12:01AM 18.4890 -23.8000 31° Northeast 465 535 39,000  Level FlightAware
12:02AM 18.5810 -23.7420 31° Northeast 464 534 39,000  Level FlightAware
12:03AM 18.6630 -23.6900 31° Northeast 462 532 39,000  Level FlightAware
12:03AM 18.7350 -23.6450 31° Northeast 462 532 39,000  Level FlightAware
12:04AM 18.8030 -23.6020 31° Northeast 461 531 39,000  Level FlightAware
12:05AM 18.8590 -23.5660 31° Northeast 461 531 39,000  Level FlightAware
12:05AM 18.9620 -23.5010 31° Northeast 461 531 39,000  Level FlightAware
12:06AM 19.0370 -23.4540 31° Northeast 461 531 39,000  Level FlightAware
12:07AM 19.0920 -23.4180 32° Northeast 461 531 39,000  Level FlightAware
12:07AM 19.1480 -23.3830 31° Northeast 461 531 39,000  Level FlightAware
12:08AM 19.2230 -23.3350 31° Northeast 461 531 39,000  Level FlightAware
12:09AM 19.2790 -23.3000 31° Northeast 461 531 39,000  Level FlightAware
12:09AM 19.3350 -23.2640 31° Northeast 461 531 39,000  Level FlightAware
12:10AM 19.4300 -23.2040 31° Northeast 461 531 39,000  Level FlightAware
12:11AM 19.4780 -23.1730 31° Northeast 461 531 39,000  Level FlightAware
12:11AM 19.5370 -23.1350 31° Northeast 461 531 39,000  Level FlightAware
12:12AM 19.6110 -23.0880 31° Northeast 461 531 39,000  Level FlightAware
12:13AM 19.6670 -23.0520 31° Northeast 461 531 39,000  Level FlightAware
12:14AM 19.7440 -23.0030 31° Northeast 461 531 39,000  Level FlightAware
12:14AM 19.7990 -22.9680 31° Northeast 461 531 39,000  Level FlightAware
12:15AM 19.8400 -22.9420 31° Northeast 461 531 39,000  Level FlightAware
12:18AM 20.1631 -22.7710 26° Northeast  Level Estimated
12:19AM 20.2764 -22.7108 26° Northeast  Level Estimated
12:20AM 20.3897 -22.6506 26° Northeast  Level Estimated
12:21AM 20.5030 -22.5902 27° Northeast  Level Estimated
12:22AM 20.6162 -22.5298 27° Northeast  Level Estimated
12:23AM 20.7295 -22.4693 27° Northeast  Level Estimated
12:24AM 20.8427 -22.4087 27° Northeast  Level Estimated
12:25AM 20.9559 -22.3480 27° Northeast  Level Estimated
12:26AM 21.0691 -22.2872 27° Northeast  Level Estimated
12:27AM 21.1822 -22.2263 27° Northeast  Level Estimated
12:28AM 21.2954 -22.1653 27° Northeast  Level Estimated
12:29AM 21.4085 -22.1042 27° Northeast  Level Estimated
12:30AM 21.5216 -22.0430 27° Northeast  Level Estimated
12:31AM 21.6346 -21.9818 27° Northeast  Level Estimated
12:32AM 21.7477 -21.9204 27° Northeast  Level Estimated
12:33AM 21.8607 -21.8589 27° Northeast  Level Estimated
12:34AM 21.9737 -21.7974 27° Northeast  Level Estimated
12:35AM 22.0867 -21.7357 27° Northeast  Level Estimated
12:36AM 22.1996 -21.6740 27° Northeast  Level Estimated
12:37AM 22.3126 -21.6121 27° Northeast  Level Estimated
12:38AM 22.4255 -21.5502 27° Northeast  Level Estimated
12:39AM 22.5384 -21.4881 27° Northeast  Level Estimated
12:40AM 22.6512 -21.4260 27° Northeast  Level Estimated
12:41AM 22.7641 -21.3637 27° Northeast  Level Estimated
12:42AM 22.8769 -21.3014 27° Northeast  Level Estimated
12:43AM 22.9897 -21.2389 27° Northeast  Level Estimated
12:44AM 23.1024 -21.1763 27° Northeast  Level Estimated
12:45AM 23.2152 -21.1137 27° Northeast  Level Estimated
12:46AM 23.3279 -21.0509 27° Northeast  Level Estimated
12:47AM 23.4406 -20.9880 27° Northeast  Level Estimated
12:48AM 23.5532 -20.9250 27° Northeast  Level Estimated
12:49AM 23.6659 -20.8619 27° Northeast  Level Estimated
12:50AM 23.7785 -20.7987 27° Northeast  Level Estimated
12:51AM 23.8911 -20.7354 27° Northeast  Level Estimated
12:52AM 24.0036 -20.6719 27° Northeast  Level Estimated
12:53AM 24.1162 -20.6084 27° Northeast  Level Estimated
12:53AM 24.1730 -20.0580 27° Northeast 459 528 39,000  Level FlightAware
12:53AM 24.2430 -20.0100 32° Northeast 459 528 39,000  Level FlightAware
12:54AM 24.2287 -20.5448 27° Northeast  Level Estimated
12:54AM 24.3240 -19.9540 32° Northeast 459 528 39,000  Level FlightAware
12:55AM 24.3970 -19.9030 32° Northeast 459 528 39,000  Level FlightAware
12:56AM 24.4860 -19.8410 32° Northeast 461 531 39,000  Level FlightAware
12:56AM 24.5580 -19.7910 32° Northeast 461 531 39,000  Level FlightAware
12:57AM 24.6290 -19.7420 32° Northeast 461 531 39,000  Level FlightAware
12:58AM 24.7030 -19.6900 33° Northeast 461 531 39,000  Level FlightAware
12:58AM 24.7770 -19.6390 32° Northeast 461 531 39,000  Level FlightAware
12:59AM 24.8490 -19.5890 32° Northeast 463 533 39,000  Level FlightAware
01:00AM 24.9240 -19.5360 33° Northeast 464 534 39,000  Level FlightAware
01:00AM 24.9850 -19.4930 33° Northeast 463 533 39,000  Level FlightAware
01:01AM 25.0700 -19.4330 33° Northeast 461 531 39,000  Level FlightAware
01:02AM 25.1400 -19.3840 32° Northeast 464 534 39,000  Level FlightAware
01:02AM 25.2240 -19.3250 32° Northeast 474 545 39,000  Level FlightAware
01:03AM 25.2990 -19.2720 33° Northeast 475 547 39,000  Level FlightAware
01:04AM 25.3820 -19.2140 32° Northeast 475 547 39,000  Level FlightAware
01:04AM 25.4570 -19.1600 33° Northeast 476 548 39,000  Level FlightAware
01:05AM 25.5210 -19.1150 32° Northeast 476 548 39,000  Level FlightAware
01:06AM 25.5970 -19.0610 33° Northeast 476 548 39,000  Level FlightAware
01:06AM 25.6710 -19.0090 32° Northeast 476 548 39,000  Level FlightAware
01:07AM 25.7380 -18.9610 33° Northeast 476 548 39,000  Level FlightAware
01:08AM 25.8200 -18.9020 33° Northeast 476 548 39,000  Level FlightAware
01:08AM 25.9020 -18.8440 32° Northeast 476 548 39,000  Level FlightAware
01:09AM 25.9670 -18.7970 33° Northeast 475 547 39,000 120 Level FlightAware
01:10AM 26.0500 -18.7380 33° Northeast 475 547 39,200 600 Climbing FlightAware
01:11AM 26.1240 -18.6850 33° Northeast 461 531 39,900 540 Climbing FlightAware
01:11AM 26.2060 -18.6260 33° Northeast 464 534 40,000 60 Climbing FlightAware
01:12AM 26.2880 -18.5670 33° Northeast 463 533 40,000  Level FlightAware
01:13AM 26.3520 -18.5210 33° Northeast 463 533 40,000  Level FlightAware
01:13AM 26.4440 -18.4540 33° Northeast 462 532 40,000  Level FlightAware
01:14AM 26.5090 -18.4070 33° Northeast 468 539 40,000  Level FlightAware
01:15AM 26.5830 -18.3540 33° Northeast 468 539 40,000  Level FlightAware
01:15AM 26.6680 -18.2920 33° Northeast 476 548 40,000  Level FlightAware
01:16AM 26.7500 -18.2320 33° Northeast 477 549 40,000  Level FlightAware
01:17AM 26.8230 -18.1790 33° Northeast 478 550 40,000  Level FlightAware
01:18AM 26.8980 -18.1240 33° Northeast 479 551 40,000  Level FlightAware
01:18AM 26.9810 -18.0640 33° Northeast 479 551 40,000  Level FlightAware
01:19AM 27.0570 -18.0080 33° Northeast 480 552 40,000  Level FlightAware
01:20AM 27.1410 -17.9470 33° Northeast 480 552 40,000  Level FlightAware
01:20AM 27.2170 -17.8910 33° Northeast 482 555 40,000  Level FlightAware
01:21AM 27.2990 -17.8310 33° Northeast 480 552 40,000  Level FlightAware
01:22AM 27.3730 -17.7760 33° Northeast 480 552 40,000  Level FlightAware
01:22AM 27.4470 -17.7210 33° Northeast 479 551 40,000  Level FlightAware
01:23AM 27.5230 -17.6650 33° Northeast 479 551 40,000  Level FlightAware
01:24AM 27.6080 -17.6030 33° Northeast 480 552 40,000  Level FlightAware
01:25AM 27.6810 -17.5480 34° Northeast 482 555 40,000  Level FlightAware
01:25AM 27.7660 -17.4850 33° Northeast 483 556 40,000  Level FlightAware
01:26AM 27.8430 -17.4280 33° Northeast 483 556 40,000  Level FlightAware
01:27AM 27.9180 -17.3720 33° Northeast 483 556 40,000  Level FlightAware
01:27AM 27.9960 -17.3200 30° Northeast 481 554 40,000  Level FlightAware
01:28AM 28.0890 -17.2790 21° North 473 544 40,000  Level FlightAware
01:29AM 28.1750 -17.2480 18° North 475 547 40,000  Level FlightAware
01:29AM 28.2700 -17.2140 17° North 478 550 40,000  Level FlightAware
01:30AM 28.3550 -17.1820 18° North 478 550 40,000  Level FlightAware
01:31AM 28.4530 -17.1460 18° North 478 550 40,000  Level FlightAware
01:32AM 28.5370 -17.1150 18° North 487 560 40,000  Level FlightAware
01:32AM 28.6240 -17.0830 18° North 488 562 40,000  Level FlightAware
01:33AM 28.6980 -17.0550 18° North 489 563 40,000  Level FlightAware
01:34AM 28.8000 -17.0170 18° North 489 563 40,000  Level FlightAware
01:34AM 28.8880 -16.9840 18° North 489 563 40,000  Level FlightAware
01:35AM 28.9830 -16.9490 18° North 489 563 40,000  Level FlightAware
01:36AM 29.0690 -16.9170 18° North 490 564 40,000  Level FlightAware
01:36AM 29.1560 -16.8840 18° North 489 563 40,000  Level FlightAware
01:37AM 29.2510 -16.8480 18° North 489 563 40,000  Level FlightAware
01:38AM 29.3410 -16.8140 18° North 490 564 40,000  Level FlightAware
01:39AM 29.4370 -16.7780 18° North 491 565 40,000  Level FlightAware
01:39AM 29.5200 -16.7470 18° North 493 567 40,000  Level FlightAware
01:40AM 29.6190 -16.7090 18° North 494 568 40,000  Level FlightAware
01:41AM 29.7030 -16.6780 18° North 496 571 40,000  Level FlightAware
01:41AM 29.7990 -16.6410 18° North 497 572 40,000  Level FlightAware
01:42AM 29.9120 -16.5980 18° North 498 573 40,000  Level FlightAware
01:43AM 30.0100 -16.5600 19° North 499 574 40,000  Level FlightAware
01:44AM 30.1050 -16.5240 18° North 499 574 40,000  Level FlightAware
01:44AM 30.1930 -16.4900 18° North 499 574 40,000  Level FlightAware
01:45AM 30.2780 -16.4580 18° North 499 574 40,000  Level FlightAware
01:46AM 30.4050 -16.4080 19° North 499 574 40,000  Level FlightAware
01:47AM 30.5030 -16.3710 18° North 501 577 40,000  Level FlightAware
01:47AM 30.5970 -16.3340 19° North 502 578 40,000  Level FlightAware
01:48AM 30.6880 -16.2990 18° North 502 578 40,000  Level FlightAware
01:49AM 30.8130 -16.2500 19° North 503 579 40,000  Level FlightAware
01:50AM 30.9020 -16.2160 18° North 504 580 40,000  Level FlightAware
01:50AM 31.0020 -16.1770 18° North 504 580 40,000  Level FlightAware
01:51AM 31.0920 -16.1420 18° North 504 580 40,000  Level FlightAware
01:52AM 31.1710 -16.1110 19° North 503 579 40,000  Level FlightAware
01:52AM 31.2780 -16.0690 19° North 502 578 40,000  Level FlightAware
01:53AM 31.3720 -16.0310 19° North 500 575 40,000  Level FlightAware
01:54AM 31.4540 -15.9890 24° Northeast 503 579 40,000  Level FlightAware
01:55AM 31.5380 -15.9360 28° Northeast 501 577 40,000  Level FlightAware
01:55AM 31.6080 -15.8940 27° Northeast 501 577 40,000  Level FlightAware
01:56AM 31.7170 -15.8240 29° Northeast 501 577 40,000  Level FlightAware
01:57AM 31.8000 -15.7720 28° Northeast 501 577 40,000  Level FlightAware
01:57AM 31.8710 -15.7280 28° Northeast 501 577 40,000  Level FlightAware
01:58AM 31.9750 -15.6570 30° Northeast 502 578 40,000  Level FlightAware
01:59AM 32.0560 -15.6020 30° Northeast 502 578 40,000  Level FlightAware
02:00AM 32.1430 -15.5430 30° Northeast 503 579 40,000  Level FlightAware
02:00AM 32.2240 -15.4890 29° Northeast 505 581 40,000  Level FlightAware
02:01AM 32.3150 -15.4260 30° Northeast 505 581 40,000  Level FlightAware
02:02AM 32.3950 -15.3720 30° Northeast 503 579 40,000  Level FlightAware
02:02AM 32.4750 -15.3180 30° Northeast 502 578 40,000  Level FlightAware
02:03AM 32.5480 -15.2680 30° Northeast 502 578 40,000  Level FlightAware
02:04AM 32.6380 -15.2060 30° Northeast 504 580 40,000  Level FlightAware
02:04AM 32.7160 -15.1530 30° Northeast 504 580 40,000  Level FlightAware
02:05AM 32.7870 -15.1040 30° Northeast 503 579 40,000  Level FlightAware
02:06AM 32.8750 -15.0440 30° Northeast 502 578 40,000  Level FlightAware
02:06AM 32.9600 -14.9850 30° Northeast 500 575 40,000  Level FlightAware
02:07AM 33.0270 -14.9380 30° Northeast 500 575 40,000  Level FlightAware
02:08AM 33.1120 -14.8800 30° Northeast 501 577 40,000  Level FlightAware
02:08AM 33.1990 -14.8190 30° Northeast 502 578 40,000  Level FlightAware
02:09AM 33.2810 -14.7620 30° Northeast 502 578 40,000  Level FlightAware
02:10AM 33.3680 -14.7010 30° Northeast 504 580 40,000  Level FlightAware
02:11AM 33.4680 -14.6320 30° Northeast 504 580 40,000  Level FlightAware
02:11AM 33.5390 -14.5830 30° Northeast 504 580 40,000  Level FlightAware
02:12AM 33.6340 -14.5150 31° Northeast 506 582 40,000  Level FlightAware
02:13AM 33.7230 -14.4520 30° Northeast 505 581 40,000  Level FlightAware
02:13AM 33.7950 -14.4020 30° Northeast 505 581 40,000  Level FlightAware
02:14AM 33.8590 -14.3580 30° Northeast 505 581 40,000  Level FlightAware
02:15AM 33.9720 -14.2790 30° Northeast 505 581 40,000  Level FlightAware
02:16AM 34.0570 -14.2200 30° Northeast 505 581 40,000  Level FlightAware
02:16AM 34.1190 -14.1770 30° Northeast 505 581 40,000  Level FlightAware
02:17AM 34.1810 -14.1340 30° Northeast 505 581 40,000  Level FlightAware
02:18AM 34.2630 -14.0760 30° Northeast 505 581 40,000  Level FlightAware
02:18AM 34.3270 -14.0320 30° Northeast 505 581 40,000  Level FlightAware
02:19AM 34.4090 -13.9740 30° Northeast 505 581 40,000  Level FlightAware
02:20AM 34.4710 -13.9300 30° Northeast 505 581 40,000  Level FlightAware
02:21AM 34.5540 -13.8730 29° Northeast 505 581 40,000  Level FlightAware
02:21AM 34.6160 -13.8290 30° Northeast 505 581 40,000  Level FlightAware
02:22AM 34.6780 -13.7860 30° Northeast 505 581 40,000  Level FlightAware
02:22AM 34.7410 -13.7410 30° Northeast 505 581 40,000  Level FlightAware
02:25AM 34.9676 -13.5815 30° Northeast  Level Estimated
02:26AM 35.0771 -13.5040 30° Northeast  Level Estimated
02:27AM 35.1866 -13.4263 30° Northeast  Level Estimated
02:27AM 35.4970 -13.1690 30° Northeast 40,000  Level FlightAware
02:28AM 35.5460 -13.1330 31° Northeast 506 582 40,000  Level FlightAware
02:29AM 35.6380 -13.0650 31° Northeast 505 581 40,000  Level FlightAware
02:29AM 35.7390 -12.9890 31° Northeast 496 571 40,000  Level FlightAware
02:30AM 35.7980 -12.9450 31° Northeast 495 570 40,000  Level FlightAware
02:31AM 35.9040 -12.8650 31° Northeast 493 567 40,000  Level FlightAware
02:31AM 35.9880 -12.8020 31° Northeast 493 567 40,000  Level FlightAware
02:32AM 36.0730 -12.7380 31° Northeast 493 567 40,000  Level FlightAware
02:33AM 36.1480 -12.6820 31° Northeast 501 577 40,000  Level FlightAware
02:34AM 36.2420 -12.6100 32° Northeast 492 566 40,000  Level FlightAware
02:34AM 36.3320 -12.5420 31° Northeast 491 565 40,000  Level FlightAware
02:35AM 36.3990 -12.4910 31° Northeast 489 563 40,000  Level FlightAware
02:36AM 36.4700 -12.4360 32° Northeast 496 571 40,000  Level FlightAware
02:36AM 36.5550 -12.3720 31° Northeast 496 571 40,000  Level FlightAware
02:37AM 36.6230 -12.3200 32° Northeast 494 568 40,000  Level FlightAware
02:38AM 36.7050 -12.2570 32° Northeast 494 568 40,000  Level FlightAware
02:38AM 36.7850 -12.1950 32° Northeast 493 567 40,000  Level FlightAware
02:39AM 36.8670 -12.1310 32° Northeast 491 565 40,000  Level FlightAware
02:40AM 36.9490 -12.0690 31° Northeast 491 565 40,000  Level FlightAware
02:41AM 37.0650 -11.9780 32° Northeast 494 568 40,000  Level FlightAware
02:41AM 37.1420 -11.9180 32° Northeast 495 570 40,000  Level FlightAware
02:42AM 37.2280 -11.8510 32° Northeast 496 571 40,000  Level FlightAware
02:43AM 37.3200 -11.7790 32° Northeast 497 572 40,000  Level FlightAware
02:43AM 37.3970 -11.7190 32° Northeast 496 571 40,000  Level FlightAware
02:44AM 37.4610 -11.6680 32° Northeast 498 573 40,000  Level FlightAware
02:45AM 37.5520 -11.5960 32° Northeast 499 574 40,000  Level FlightAware
02:45AM 37.6300 -11.5350 32° Northeast 498 573 40,000  Level FlightAware
02:46AM 37.7190 -11.4640 32° Northeast 497 572 40,000  Level FlightAware
02:47AM 37.7960 -11.4030 32° Northeast 495 570 40,000  Level FlightAware
02:48AM 37.8750 -11.3390 33° Northeast 492 566 40,000  Level FlightAware
02:48AM 37.9600 -11.2720 32° Northeast 489 563 40,000  Level FlightAware
02:49AM 38.0310 -11.2150 32° Northeast 486 559 40,000  Level FlightAware
02:50AM 38.1230 -11.1400 33° Northeast 488 562 40,000  Level FlightAware
02:50AM 38.1980 -11.0800 32° Northeast 489 563 40,000  Level FlightAware
02:51AM 38.2780 -11.0160 32° Northeast 487 560 40,000  Level FlightAware
02:52AM 38.3620 -10.9480 32° Northeast 487 560 40,000  Level FlightAware
02:52AM 38.4360 -10.8880 32° Northeast 488 562 40,000  Level FlightAware
02:53AM 38.5240 -10.8160 33° Northeast 490 564 40,000  Level FlightAware
02:54AM 38.5990 -10.7540 33° Northeast 491 565 40,000  Level FlightAware
02:55AM 38.6860 -10.6830 32° Northeast 492 566 40,000  Level FlightAware
02:55AM 38.7620 -10.6210 32° Northeast 492 566 40,000  Level FlightAware
02:56AM 38.8290 -10.5660 33° Northeast 491 565 40,000  Level FlightAware
02:56AM 38.8920 -10.5130 33° Northeast 489 563 40,000 -780 Level FlightAware
02:57AM 38.9910 -10.4320 32° Northeast 491 565 38,900 -1,560 Descending FlightAware
02:58AM 39.0560 -10.3770 33° Northeast 486 559 37,800 -1,920 Descending FlightAware
02:59AM 39.1330 -10.3140 32° Northeast 480 552 36,500 -1,920 Descending FlightAware
02:59AM 39.2060 -10.2530 33° Northeast 474 545 35,300 -1,680 Descending FlightAware
03:00AM 39.2880 -10.1840 33° Northeast 461 531 34,100 -1,620 Descending FlightAware
03:01AM 39.3540 -10.1290 33° Northeast 451 519 33,100 -1,620 Descending FlightAware
03:01AM 39.4310 -10.0640 33° Northeast 439 505 31,900 -1,620 Descending FlightAware
03:02AM 39.4990 -10.0060 33° Northeast 429 494 30,900 -1,620 Descending FlightAware
03:03AM 39.5660 -9.9500 33° Northeast 420 483 29,800 -1,680 Descending FlightAware
03:03AM 39.6300 -9.8960 33° Northeast 412 474 28,700 -1,620 Descending FlightAware
03:04AM 39.6940 -9.8420 33° Northeast 404 465 27,700 -1,620 Descending FlightAware
03:05AM 39.7550 -9.7900 33° Northeast 395 455 26,600 -1,620 Descending FlightAware
03:05AM 39.8080 -9.7450 33° Northeast 398 458 25,700 -1,620 Descending FlightAware
03:06AM 39.8670 -9.6940 34° Northeast 388 447 24,600 -1,680 Descending FlightAware
03:07AM 39.9360 -9.6360 33° Northeast 381 438 23,400 -1,620 Descending FlightAware
03:07AM 40.0010 -9.5800 33° Northeast 373 429 22,200 -1,560 Descending FlightAware
03:08AM 40.0710 -9.5190 34° Northeast 365 420 20,900 -1,500 Descending FlightAware
03:09AM 40.1330 -9.4660 33° Northeast 360 414 19,800 -1,620 Descending FlightAware
03:10AM 40.1910 -9.4150 34° Northeast 348 400 18,700 -1,620 Descending FlightAware
03:10AM 40.2350 -9.3780 33° Northeast 350 403 17,800 -1,380 Descending FlightAware
03:11AM 40.2820 -9.3370 34° Northeast 346 398 17,000 -480 Descending FlightAware
03:12AM 40.3510 -9.2780 33° Northeast 346 398 17,000  Level FlightAware
03:13AM 40.4070 -9.2300 33° Northeast 346 398 17,000  Level FlightAware
03:13AM 40.4480 -9.1950 33° Northeast 346 398 17,000  Level FlightAware
03:14AM 40.5030 -9.1490 32° Northeast 346 398 17,000  Level FlightAware
03:15AM 40.5440 -9.1140 33° Northeast 346 398 17,000  Level FlightAware
03:18AM 40.8600 -8.9211 25° Northeast  Level Estimated
03:19AM 40.9748 -8.8505 25° Northeast  Level Estimated
03:20AM 41.0896 -8.7797 25° Northeast  Level Estimated
03:21AM 41.2043 -8.7086 25° Northeast  Level Estimated
03:22AM 41.2481 -8.6814 25° Northeast  Level Estimated
03:23AM 41.2481 -8.6814 171° South  Level Estimated
03:24AM 41.2481 -8.6814 171° South  Level Estimated
03:25AM 41.2481 -8.6814 171° South  Level Estimated
03:26AM 41.2481 -8.6814 171° South  Level Estimated
03:27AM 41.2481 -8.6814 171° South  Level Estimated
03:28AM 41.2481 -8.6814 171° South  Level Estimated
03:29AM 41.2481 -8.6814 171° South  Level Estimated
03:30AM 41.2481 -8.6814 171° South  Level Estimated
03:31AM 41.2481 -8.6814 171° South  Level Estimated
03:32AM 41.2481 -8.6814 171° South  Level Estimated
03:33AM 41.2481 -8.6814 171° South  Level Estimated
03:34AM 41.2481 -8.6814 171° South  Level Estimated
03:35AM 41.2481 -8.6814 171° South  Level Estimated